Time;durP1;ratioP1;P1;durP2;ratioP2;P2;SDS_P1;SDS_P2;PMS_P1;PMS_P2;Temp;Humidity;BMP_temperature;BMP_pressure;BME280_temperature;BME280_humidity;BME280_pressure;Samples;Min_cycle;Max_cycle;Signal;HPM_P1;HPM_P2
2021/03/06 00:02:22;;;;;;;9.57;6.77;;;-0.10;92.40;;;;;;4418325;32;20183;-62
2021/03/06 00:04:49;;;;;;;15.27;7.50;;;-0.10;92.60;;;;;;4419784;32;20202;-64
2021/03/06 00:07:15;;;;;;;19.07;7.57;;;-0.10;92.60;;;;;;4420072;32;20179;-64
2021/03/06 00:09:42;;;;;;;14.10;7.20;;;-0.10;92.70;;;;;;4420681;32;20635;-67
2021/03/06 00:12:09;;;;;;;20.83;6.77;;;-0.10;92.70;;;;;;4421938;32;20244;-66
2021/03/06 00:14:38;;;;;;;14.57;7.40;;;-0.20;92.80;;;;;;4421735;32;20226;-64
2021/03/06 00:17:04;;;;;;;16.10;7.73;;;-0.20;92.80;;;;;;4418999;32;20223;-65
2021/03/06 00:19:30;;;;;;;13.70;7.67;;;-0.30;92.80;;;;;;4419852;32;20159;-67
2021/03/06 00:21:57;;;;;;;17.03;8.00;;;-0.20;92.70;;;;;;4418979;32;20170;-63
2021/03/06 00:24:25;;;;;;;13.17;6.83;;;-0.20;92.80;;;;;;4415120;32;20175;-64
2021/03/06 00:26:51;;;;;;;12.00;5.90;;;-0.20;92.90;;;;;;4412681;32;20720;-64
2021/03/06 00:29:17;;;;;;;9.80;6.03;;;-0.20;92.70;;;;;;4418691;32;20207;-66
2021/03/06 00:31:44;;;;;;;12.10;5.70;;;-0.20;92.20;;;;;;4420394;32;20193;-66
2021/03/06 00:34:10;;;;;;;10.43;5.90;;;-0.20;92.40;;;;;;4419847;32;20193;-66
2021/03/06 00:36:36;;;;;;;9.20;5.30;;;-0.30;92.60;;;;;;4416775;32;20226;-64
2021/03/06 00:39:05;;;;;;;13.60;6.00;;;-0.30;92.80;;;;;;4420786;32;20206;-64
2021/03/06 00:41:32;;;;;;;10.93;5.50;;;-0.30;92.90;;;;;;4418500;32;20549;-65
2021/03/06 00:43:58;;;;;;;10.63;5.47;;;-0.30;92.90;;;;;;4420128;32;20171;-67
2021/03/06 00:46:28;;;;;;;10.93;5.70;;;-0.40;92.80;;;;;;4419828;32;20250;-66
2021/03/06 00:48:55;;;;;;;11.23;6.20;;;-0.40;92.90;;;;;;4420641;32;20560;-66
2021/03/06 00:51:21;;;;;;;11.23;5.67;;;-0.40;93.10;;;;;;4415922;32;20258;-64
2021/03/06 00:53:47;;;;;;;9.60;5.77;;;-0.40;93.20;;;;;;4421380;32;20238;-65
2021/03/06 00:56:14;;;;;;;12.17;6.13;;;-0.50;92.70;;;;;;4419322;32;20226;-63
2021/03/06 00:58:41;;;;;;;14.83;6.30;;;-0.50;92.90;;;;;;4417408;32;20155;-66
2021/03/06 01:01:09;;;;;;;9.90;5.50;;;-0.50;93.00;;;;;;4418466;32;20308;-65
2021/03/06 01:03:36;;;;;;;11.50;6.40;;;-0.50;93.20;;;;;;4421230;32;20661;-65
2021/03/06 01:06:04;;;;;;;11.47;6.00;;;-0.50;93.20;;;;;;4419564;32;20228;-67
2021/03/06 01:08:30;;;;;;;17.30;6.00;;;-0.50;93.20;;;;;;4419375;32;20636;-67
2021/03/06 01:10:56;;;;;;;9.13;5.53;;;-0.50;93.10;;;;;;4420446;32;20219;-66
2021/03/06 01:13:25;;;;;;;11.73;5.00;;;-0.50;93.40;;;;;;4418991;32;20175;-63
2021/03/06 01:15:51;;;;;;;9.17;5.33;;;-0.50;93.60;;;;;;4419822;32;20219;-67
2021/03/06 01:18:18;;;;;;;9.77;5.87;;;-0.50;93.40;;;;;;4421030;32;20215;-64
2021/03/06 01:20:44;;;;;;;13.33;6.07;;;-0.50;93.50;;;;;;4417919;32;20238;-64
2021/03/06 01:23:12;;;;;;;12.63;5.57;;;-0.50;93.40;;;;;;4421164;32;20653;-68
2021/03/06 01:25:39;;;;;;;12.63;5.97;;;-0.50;93.70;;;;;;4422071;32;20652;-63
2021/03/06 01:28:06;;;;;;;14.13;5.17;;;-0.60;93.40;;;;;;4419407;32;20162;-66
2021/03/06 01:30:34;;;;;;;9.67;4.47;;;-0.60;93.40;;;;;;4419696;32;20175;-64
2021/03/06 01:33:00;;;;;;;12.30;5.23;;;-0.60;93.50;;;;;;4417583;32;20577;-65
2021/03/06 01:35:27;;;;;;;11.23;5.23;;;-0.50;93.60;;;;;;4414726;32;20231;-65
2021/03/06 01:37:54;;;;;;;11.60;5.17;;;-0.60;93.90;;;;;;4415561;32;20234;-65
2021/03/06 01:40:27;;;;;;;10.67;5.03;;;-0.60;93.60;;;;;;4418811;32;20227;-65
2021/03/06 01:42:54;;;;;;;9.47;5.73;;;-0.60;93.60;;;;;;4415428;32;20167;-66
2021/03/06 01:45:21;;;;;;;10.40;4.90;;;-0.70;93.60;;;;;;4414560;32;20226;-63
2021/03/06 01:47:48;;;;;;;8.30;4.67;;;-0.70;93.60;;;;;;4420803;32;20516;-64
2021/03/06 01:50:22;;;;;;;12.57;4.80;;;-0.70;93.30;;;;;;4420889;32;20210;-66
2021/03/06 01:52:48;;;;;;;12.20;4.33;;;-0.80;93.30;;;;;;4421993;32;20622;-64
2021/03/06 01:55:17;;;;;;;13.50;5.70;;;-0.70;93.50;;;;;;4411126;32;20219;-64
2021/03/06 01:57:45;;;;;;;9.47;4.60;;;-0.80;93.40;;;;;;4414987;32;20223;-64
2021/03/06 02:00:12;;;;;;;12.47;5.33;;;-0.80;93.30;;;;;;4418495;32;20214;-64
2021/03/06 02:02:40;;;;;;;10.33;4.87;;;-0.70;93.40;;;;;;4419317;32;20187;-64
2021/03/06 02:05:08;;;;;;;10.40;5.37;;;-0.80;93.50;;;;;;4416594;32;20227;-64
2021/03/06 02:07:35;;;;;;;11.57;5.67;;;-0.70;93.80;;;;;;4420667;32;20607;-65
2021/03/06 02:10:02;;;;;;;13.93;6.57;;;-0.70;93.80;;;;;;4419784;32;20179;-64
2021/03/06 02:12:39;;;;;;;11.27;6.70;;;-0.70;93.90;;;;;;4419308;32;20218;-63
2021/03/06 02:15:16;;;;;;;10.93;5.33;;;-0.70;94.00;;;;;;4419011;32;20317;-64
2021/03/06 02:17:49;;;;;;;9.83;6.03;;;-0.70;94.00;;;;;;4419861;32;20147;-64
2021/03/06 02:20:47;;;;;;;12.30;6.13;;;-0.70;94.10;;;;;;4420125;32;20177;-64
2021/03/06 02:23:44;;;;;;;8.77;4.93;;;-0.80;94.00;;;;;;4419170;32;20193;-63
2021/03/06 02:26:42;;;;;;;10.50;5.03;;;-0.80;94.00;;;;;;4415301;32;20586;-65
2021/03/06 02:29:32;;;;;;;10.37;5.00;;;-0.80;94.10;;;;;;4417095;32;20210;-64
2021/03/06 02:32:03;;;;;;;12.40;5.10;;;-0.90;93.80;;;;;;4408707;32;20223;-64
2021/03/06 02:34:31;;;;;;;10.20;5.50;;;-0.90;93.90;;;;;;4415643;32;20257;-64
2021/03/06 02:37:01;;;;;;;7.87;4.30;;;-0.90;93.90;;;;;;4417065;32;20171;-64
2021/03/06 02:39:31;;;;;;;10.37;5.93;;;-0.90;93.90;;;;;;4419037;32;20317;-64
2021/03/06 02:41:58;;;;;;;12.17;5.30;;;-1.00;94.00;;;;;;4420624;32;20181;-65
2021/03/06 02:44:28;;;;;;;9.43;4.50;;;-1.00;94.20;;;;;;4420733;32;20247;-64
2021/03/06 02:46:56;;;;;;;14.87;5.20;;;-0.90;94.30;;;;;;4422840;32;20204;-65
2021/03/06 02:49:27;;;;;;;6.50;4.93;;;-0.90;94.20;;;;;;4421024;32;20207;-64
2021/03/06 02:51:53;;;;;;;7.33;4.93;;;-1.00;94.10;;;;;;4422312;32;20541;-65
2021/03/06 02:54:23;;;;;;;9.30;4.90;;;-1.10;94.10;;;;;;4415855;32;20238;-65
2021/03/06 02:56:50;;;;;;;9.60;5.37;;;-1.10;93.90;;;;;;4422180;32;20210;-65
2021/03/06 02:59:47;;;;;;;10.10;5.83;;;-1.10;94.00;;;;;;4422141;32;20219;-65
2021/03/06 03:02:22;;;;;;;11.30;4.93;;;-1.10;94.20;;;;;;4417694;32;20246;-65
2021/03/06 03:05:01;;;;;;;13.27;5.90;;;-1.20;94.30;;;;;;4414914;32;20187;-65
2021/03/06 03:07:35;;;;;;;10.53;6.07;;;-1.20;94.30;;;;;;4419162;32;20282;-64
2021/03/06 03:10:05;;;;;;;12.80;5.77;;;-1.20;94.40;;;;;;4421967;32;20229;-65
2021/03/06 03:12:38;;;;;;;11.17;6.03;;;-1.20;94.40;;;;;;4423012;32;20206;-65
2021/03/06 03:15:12;;;;;;;15.17;5.33;;;-1.20;94.40;;;;;;4422701;32;20155;-65
2021/03/06 03:17:41;;;;;;;13.03;5.37;;;-1.30;94.50;;;;;;4422274;32;20208;-65
2021/03/06 03:20:15;;;;;;;11.67;5.33;;;-1.30;94.50;;;;;;4419365;32;20171;-64
2021/03/06 03:22:45;;;;;;;12.13;5.97;;;-1.30;94.50;;;;;;4415366;32;20276;-64
2021/03/06 03:25:13;;;;;;;10.57;5.13;;;-1.30;94.50;;;;;;4416790;32;20257;-64
2021/03/06 03:27:42;;;;;;;14.00;5.47;;;-1.40;94.20;;;;;;4421689;32;20198;-65
2021/03/06 03:30:12;;;;;;;9.27;5.40;;;-1.40;94.00;;;;;;4420532;32;20632;-65
2021/03/06 03:32:43;;;;;;;8.73;5.10;;;-1.40;94.00;;;;;;4417421;32;20203;-64
2021/03/06 03:35:12;;;;;;;11.43;5.47;;;-1.40;94.00;;;;;;4418186;32;20250;-64
2021/03/06 03:37:40;;;;;;;11.07;5.33;;;-1.40;94.30;;;;;;4422488;32;20232;-64
2021/03/06 03:40:07;;;;;;;7.93;4.87;;;-1.40;94.40;;;;;;4421409;32;20277;-64
2021/03/06 03:42:34;;;;;;;12.03;4.80;;;-1.40;94.60;;;;;;4421202;32;20170;-65
2021/03/06 03:45:01;;;;;;;9.43;5.47;;;-1.40;94.60;;;;;;4422913;32;20226;-64
2021/03/06 03:47:32;;;;;;;9.37;5.50;;;-1.50;94.30;;;;;;4423270;32;20206;-66
2021/03/06 03:49:59;;;;;;;12.87;5.57;;;-1.50;94.20;;;;;;4411103;32;20648;-66
2021/03/06 03:52:28;;;;;;;12.33;4.80;;;-1.50;94.30;;;;;;4420075;32;20512;-66
2021/03/06 03:54:55;;;;;;;8.87;5.23;;;-1.40;94.50;;;;;;4417989;32;20246;-64
2021/03/06 03:57:21;;;;;;;9.57;5.27;;;-1.40;94.60;;;;;;4419724;32;20227;-63
2021/03/06 03:59:47;;;;;;;13.20;4.97;;;-1.50;94.60;;;;;;4420878;32;20525;-63
2021/03/06 04:02:22;;;;;;;9.20;5.00;;;-1.50;94.70;;;;;;4419671;32;20274;-64
2021/03/06 04:04:49;;;;;;;15.90;6.20;;;-1.50;94.70;;;;;;4421469;32;20155;-64
2021/03/06 04:07:15;;;;;;;9.23;5.20;;;-1.50;94.80;;;;;;4420759;32;20599;-64
2021/03/06 04:09:41;;;;;;;11.37;4.80;;;-1.50;94.90;;;;;;4421209;32;20156;-64
2021/03/06 04:12:08;;;;;;;7.40;4.83;;;-1.60;94.60;;;;;;4420403;32;20212;-66
2021/03/06 04:14:34;;;;;;;11.77;4.37;;;-1.70;94.30;;;;;;4423368;32;20222;-63
2021/03/06 04:17:01;;;;;;;9.17;4.73;;;-1.70;94.40;;;;;;4420758;32;20212;-65
2021/03/06 04:19:27;;;;;;;8.47;4.90;;;-1.60;94.70;;;;;;4422364;32;20565;-65
2021/03/06 04:21:54;;;;;;;10.33;5.00;;;-1.70;94.80;;;;;;4415410;32;20520;-64
2021/03/06 04:24:22;;;;;;;11.57;5.40;;;-1.70;94.60;;;;;;4420451;32;20618;-64
2021/03/06 04:26:50;;;;;;;10.70;4.90;;;-1.70;94.60;;;;;;4416508;32;20682;-64
2021/03/06 04:29:17;;;;;;;9.37;5.57;;;-1.80;94.50;;;;;;4421554;32;20228;-63
2021/03/06 04:31:44;;;;;;;12.70;5.40;;;-1.70;94.70;;;;;;4420476;32;20183;-64
2021/03/06 04:34:10;;;;;;;13.70;6.00;;;-1.80;94.80;;;;;;4421325;32;20250;-64
2021/03/06 04:36:37;;;;;;;12.63;5.53;;;-1.80;94.80;;;;;;4420722;32;20513;-64
2021/03/06 04:39:05;;;;;;;10.13;4.70;;;-1.70;94.90;;;;;;4406665;32;20220;-64
2021/03/06 04:41:31;;;;;;;9.80;5.10;;;-1.70;95.00;;;;;;4404319;32;20223;-64
2021/03/06 04:43:58;;;;;;;7.80;5.33;;;-1.70;95.20;;;;;;4406795;32;20264;-64
2021/03/06 04:46:24;;;;;;;9.70;5.07;;;-1.70;95.20;;;;;;4409967;32;20172;-63
2021/03/06 04:48:50;;;;;;;12.47;6.33;;;-1.70;95.20;;;;;;4401617;32;20205;-63
2021/03/06 04:51:17;;;;;;;15.77;6.37;;;-1.70;95.10;;;;;;4403851;32;20238;-63
2021/03/06 04:53:43;;;;;;;7.50;4.87;;;-1.70;95.10;;;;;;4398712;32;20266;-63
2021/03/06 04:56:10;;;;;;;10.07;6.07;;;-1.70;95.20;;;;;;4405567;32;20256;-63
2021/03/06 04:58:36;;;;;;;7.97;5.43;;;-1.70;95.20;;;;;;4406627;32;20579;-63
2021/03/06 05:01:03;;;;;;;14.50;5.53;;;-1.60;95.20;;;;;;4407951;32;20178;-63
2021/03/06 05:03:29;;;;;;;10.17;5.83;;;-1.60;95.20;;;;;;4408711;32;20224;-64
2021/03/06 05:05:55;;;;;;;11.50;5.70;;;-1.70;94.90;;;;;;4400690;32;20235;-63
2021/03/06 05:08:22;;;;;;;8.73;5.17;;;-1.70;94.90;;;;;;4402150;32;20220;-64
2021/03/06 05:10:48;;;;;;;11.03;4.80;;;-1.70;95.10;;;;;;4399925;32;20140;-63
2021/03/06 05:13:15;;;;;;;15.97;6.10;;;-1.70;94.80;;;;;;4409233;32;20178;-63
2021/03/06 05:15:41;;;;;;;11.03;5.83;;;-1.80;94.70;;;;;;4408108;32;20262;-63
2021/03/06 05:18:08;;;;;;;10.90;5.57;;;-1.80;94.70;;;;;;4405089;32;20175;-64
2021/03/06 05:20:34;;;;;;;15.47;5.53;;;-1.80;94.80;;;;;;4404826;32;20211;-63
2021/03/06 05:23:00;;;;;;;9.37;5.33;;;-1.80;94.80;;;;;;4404742;32;20215;-63
2021/03/06 05:25:29;;;;;;;13.13;5.47;;;-1.80;94.90;;;;;;4402304;32;20632;-63
2021/03/06 05:27:55;;;;;;;12.57;5.73;;;-1.80;94.90;;;;;;4405252;32;20182;-65
2021/03/06 05:30:23;;;;;;;9.97;5.67;;;-1.80;95.00;;;;;;4405932;32;20156;-65
2021/03/06 05:32:50;;;;;;;12.03;5.63;;;-1.80;95.00;;;;;;4403335;32;20194;-64
2021/03/06 05:35:16;;;;;;;11.17;5.43;;;-1.70;95.00;;;;;;4402972;32;20277;-64
2021/03/06 05:37:43;;;;;;;8.70;5.00;;;-1.90;95.00;;;;;;4409653;32;20224;-64
2021/03/06 05:40:10;;;;;;;10.47;5.47;;;-1.90;94.90;;;;;;4409092;32;20568;-64
2021/03/06 05:42:36;;;;;;;9.63;5.70;;;-1.90;94.90;;;;;;4409379;32;20202;-63
2021/03/06 05:45:04;;;;;;;12.93;5.50;;;-1.90;94.90;;;;;;4412286;32;20231;-63
2021/03/06 05:47:32;;;;;;;6.70;4.70;;;-2.00;94.90;;;;;;4410938;32;20174;-63
2021/03/06 05:49:59;;;;;;;9.43;5.03;;;-2.00;94.90;;;;;;4406966;32;20584;-64
2021/03/06 05:52:27;;;;;;;9.27;5.60;;;-2.00;94.90;;;;;;4406507;32;20197;-63
2021/03/06 05:54:55;;;;;;;8.50;5.60;;;-2.10;94.70;;;;;;4411133;32;20215;-63
2021/03/06 05:57:22;;;;;;;9.80;4.50;;;-2.10;94.70;;;;;;4407461;32;20219;-63
2021/03/06 05:59:49;;;;;;;8.50;4.30;;;-2.10;94.90;;;;;;4409256;32;20210;-64
2021/03/06 06:02:17;;;;;;;8.53;4.80;;;-2.20;94.80;;;;;;4416180;32;20716;-64
2021/03/06 06:04:45;;;;;;;10.00;4.87;;;-2.30;94.50;;;;;;4409305;32;20219;-64
2021/03/06 06:07:14;;;;;;;10.77;4.20;;;-2.20;94.50;;;;;;4414321;32;20676;-64
2021/03/06 06:09:42;;;;;;;7.37;4.33;;;-2.20;94.60;;;;;;4412223;32;20187;-64
2021/03/06 06:12:10;;;;;;;7.20;4.20;;;-2.20;94.80;;;;;;4409206;32;20207;-64
2021/03/06 06:14:37;;;;;;;7.40;4.17;;;-2.10;94.80;;;;;;4411628;32;20179;-64
2021/03/06 06:17:07;;;;;;;11.43;4.33;;;-2.10;94.90;;;;;;4410777;32;20608;-64
2021/03/06 06:19:34;;;;;;;6.60;4.53;;;-2.10;94.60;;;;;;4416785;32;20220;-64
2021/03/06 06:22:02;;;;;;;8.03;4.67;;;-2.00;94.60;;;;;;4403599;32;20565;-64
2021/03/06 06:24:29;;;;;;;8.67;4.60;;;-2.00;94.40;;;;;;4415781;32;20148;-64
2021/03/06 06:26:57;;;;;;;8.93;4.40;;;-2.00;94.40;;;;;;4412453;32;20244;-65
2021/03/06 06:29:37;;;;;;;9.60;4.33;;;-2.00;94.30;;;;;;4412218;32;20173;-64
2021/03/06 06:32:04;;;;;;;12.37;5.20;;;-1.90;94.30;;;;;;4409283;32;20152;-64
2021/03/06 06:34:31;;;;;;;10.77;5.80;;;-1.80;94.30;;;;;;4380934;32;1109561;-64
2021/03/06 06:36:57;;;;;;;7.80;4.07;;;-1.70;94.30;;;;;;4410474;32;20175;-64
2021/03/06 06:39:33;;;;;;;13.17;5.17;;;-1.70;94.10;;;;;;4413343;32;20250;-64
2021/03/06 06:42:00;;;;;;;7.80;4.80;;;-1.60;94.10;;;;;;4417951;32;20238;-64
2021/03/06 06:44:29;;;;;;;7.83;5.33;;;-1.50;94.10;;;;;;4408563;32;20194;-63
2021/03/06 06:46:57;;;;;;;9.87;5.80;;;-1.40;94.20;;;;;;4409502;32;20240;-65
2021/03/06 06:49:24;;;;;;;15.40;7.40;;;-1.30;94.10;;;;;;4410890;32;20251;-64
2021/03/06 06:52:03;;;;;;;16.43;7.77;;;-1.30;93.80;;;;;;4405254;32;20190;-65
2021/03/06 06:54:30;;;;;;;14.97;7.97;;;-1.50;93.40;;;;;;4409954;32;20170;-64
2021/03/06 06:57:11;;;;;;;14.57;8.13;;;-1.40;93.50;;;;;;4409246;32;20250;-64
2021/03/06 06:59:38;;;;;;;14.47;6.50;;;-1.20;93.80;;;;;;4409719;32;20183;-65
2021/03/06 07:02:06;;;;;;;11.73;6.80;;;-1.10;93.70;;;;;;4410689;32;20159;-64
2021/03/06 07:04:43;;;;;;;11.93;6.67;;;-1.00;93.70;;;;;;4410870;32;20187;-64
2021/03/06 07:07:13;;;;;;;10.37;6.27;;;-0.90;93.60;;;;;;4407557;32;20275;-64
2021/03/06 07:09:58;;;;;;;15.40;6.80;;;-0.80;93.60;;;;;;4407796;32;20192;-65
2021/03/06 07:12:27;;;;;;;11.50;6.73;;;-0.80;93.60;;;;;;4403668;32;20182;-64
2021/03/06 07:14:53;;;;;;;11.93;6.87;;;-0.60;93.50;;;;;;4408094;32;21636;-64
2021/03/06 07:17:23;;;;;;;11.57;6.87;;;-0.60;93.40;;;;;;4412188;32;20217;-64
2021/03/06 07:19:49;;;;;;;14.93;7.17;;;-0.50;93.40;;;;;;4412097;32;20629;-64
2021/03/06 07:22:17;;;;;;;10.57;7.17;;;-0.40;93.30;;;;;;4407500;32;20159;-63
2021/03/06 07:24:48;;;;;;;11.20;6.70;;;-0.30;93.20;;;;;;4408617;32;20278;-62
2021/03/06 07:27:14;;;;;;;12.63;6.83;;;-0.20;93.20;;;;;;4407238;32;20152;-63
2021/03/06 07:29:41;;;;;;;13.23;8.47;;;-0.10;93.20;;;;;;4409155;32;20160;-63
2021/03/06 07:32:12;;;;;;;21.47;8.00;;;0.00;93.10;;;;;;4413290;32;20170;-64
2021/03/06 07:34:42;;;;;;;15.67;8.07;;;0.00;93.00;;;;;;4408885;32;20236;-65
2021/03/06 07:37:09;;;;;;;14.57;7.70;;;0.00;93.10;;;;;;4411977;32;20938;-63
2021/03/06 07:39:39;;;;;;;13.50;7.97;;;0.20;93.20;;;;;;4411657;32;20223;-65
2021/03/06 07:42:18;;;;;;;13.70;8.03;;;0.50;92.90;;;;;;4412397;32;20588;-66
2021/03/06 07:44:49;;;;;;;15.87;7.53;;;0.70;92.70;;;;;;4410438;32;20170;-64
2021/03/06 07:47:16;;;;;;;11.50;7.63;;;1.00;92.20;;;;;;4407799;32;20224;-64
2021/03/06 07:49:44;;;;;;;11.17;7.13;;;1.20;92.00;;;;;;4406256;32;20171;-65
2021/03/06 07:52:12;;;;;;;13.67;6.50;;;1.40;91.70;;;;;;4409718;32;20236;-64
2021/03/06 07:54:41;;;;;;;16.97;8.37;;;1.50;91.50;;;;;;4413813;32;20184;-66
2021/03/06 07:57:08;;;;;;;12.87;7.00;;;1.60;91.40;;;;;;4405579;32;20220;-64
2021/03/06 07:59:49;;;;;;;15.33;7.87;;;1.70;91.40;;;;;;4409451;32;20229;-64
2021/03/06 08:02:43;;;;;;;13.23;6.80;;;1.90;91.20;;;;;;4410454;32;20151;-66
2021/03/06 08:05:42;;;;;;;11.80;6.47;;;2.00;91.00;;;;;;4352769;32;20667;-64
2021/03/06 08:08:08;;;;;;;12.17;5.47;;;2.20;91.20;;;;;;4357896;32;20287;-63
2021/03/06 08:11:05;;;;;;;13.60;6.27;;;2.40;91.20;;;;;;4355780;32;20681;-66
2021/03/06 08:13:37;;;;;;;10.70;6.30;;;2.50;91.40;;;;;;4358812;32;20184;-64
2021/03/06 08:16:35;;;;;;;11.73;5.77;;;2.70;91.40;;;;;;4362062;32;20169;-62
2021/03/06 08:19:22;;;;;;;11.70;6.07;;;2.80;91.20;;;;;;4360924;32;20287;-64
2021/03/06 08:21:49;;;;;;;11.13;5.93;;;3.00;91.10;;;;;;4358907;32;20176;-64
2021/03/06 08:24:27;;;;;;;11.07;5.13;;;3.00;91.20;;;;;;4361180;32;20191;-64
2021/03/06 08:27:22;;;;;;;12.27;5.53;;;3.10;91.00;;;;;;4355908;32;20177;-67
2021/03/06 08:29:58;;;;;;;9.77;5.53;;;3.10;91.10;;;;;;4356009;32;20303;-61
2021/03/06 08:32:31;;;;;;;11.60;5.37;;;3.20;91.10;;;;;;4359371;32;20179;-62
2021/03/06 08:34:58;;;;;;;10.13;4.80;;;3.40;91.00;;;;;;4352059;32;20657;-63
2021/03/06 08:37:32;;;;;;;9.83;5.10;;;3.40;90.90;;;;;;4359433;32;20743;-64
2021/03/06 08:40:20;;;;;;;10.83;4.97;;;3.50;91.00;;;;;;4364885;32;20173;-66
2021/03/06 08:42:50;;;;;;;12.73;5.20;;;3.60;90.90;;;;;;4364139;32;20496;-64
2021/03/06 08:45:20;;;;;;;16.67;6.00;;;3.70;90.70;;;;;;4360946;32;20625;-64
2021/03/06 08:47:52;;;;;;;12.17;4.83;;;3.90;90.70;;;;;;4365185;32;20289;-64
2021/03/06 08:50:20;;;;;;;14.03;4.50;;;4.00;90.50;;;;;;4363517;32;20609;-62
2021/03/06 08:52:55;;;;;;;9.60;4.73;;;4.10;90.40;;;;;;4365129;32;20383;-64
2021/03/06 08:55:23;;;;;;;9.03;4.30;;;4.20;90.30;;;;;;4365514;32;20218;-64
2021/03/06 08:57:49;;;;;;;12.63;4.87;;;4.30;90.40;;;;;;4360852;32;20188;-65
2021/03/06 09:00:23;;;;;;;10.80;4.10;;;4.50;89.90;;;;;;4366161;32;20701;-64
2021/03/06 09:02:51;;;;;;;9.63;4.03;;;4.60;89.60;;;;;;4367324;32;20232;-65
2021/03/06 09:05:20;;;;;;;12.60;3.80;;;4.90;89.10;;;;;;4362162;32;20181;-62
2021/03/06 09:07:48;;;;;;;13.20;3.77;;;5.10;88.60;;;;;;4361389;32;20601;-64
2021/03/06 09:10:21;;;;;;;12.23;3.60;;;5.30;87.30;;;;;;4365305;32;20166;-65
2021/03/06 09:12:49;;;;;;;14.93;4.40;;;5.40;86.60;;;;;;4368835;32;20543;-64
2021/03/06 09:15:28;;;;;;;9.20;3.47;;;5.50;86.00;;;;;;4365652;32;20829;-63
2021/03/06 09:17:55;;;;;;;10.00;3.30;;;5.60;85.90;;;;;;4361443;32;20187;-64
2021/03/06 09:20:22;;;;;;;8.23;3.10;;;5.70;85.30;;;;;;4402044;32;20922;-64
2021/03/06 09:22:49;;;;;;;12.03;3.33;;;6.00;84.70;;;;;;4408952;32;20234;-64
2021/03/06 09:25:28;;;;;;;8.33;3.27;;;6.30;83.00;;;;;;4410423;32;20205;-64
2021/03/06 09:27:57;;;;;;;15.10;3.17;;;6.70;81.70;;;;;;4410003;32;20343;-65
2021/03/06 09:30:25;;;;;;;8.27;2.27;;;7.10;77.90;;;;;;4410013;32;20268;-66
2021/03/06 09:32:52;;;;;;;8.90;2.50;;;7.50;76.50;;;;;;4406471;32;20219;-66
2021/03/06 09:35:20;;;;;;;8.03;1.87;;;7.80;74.10;;;;;;4409164;32;20232;-66
2021/03/06 09:38:02;;;;;;;8.90;2.40;;;7.60;70.90;;;;;;4408822;32;20168;-64
2021/03/06 09:40:28;;;;;;;9.90;2.73;;;7.40;73.00;;;;;;4410954;32;20274;-65
2021/03/06 09:42:54;;;;;;;5.50;1.40;;;7.20;74.10;;;;;;4413161;32;20183;-67
2021/03/06 09:45:26;;;;;;;6.10;2.07;;;7.10;70.50;;;;;;4407226;32;20194;-66
2021/03/06 09:47:52;;;;;;;6.67;2.27;;;7.20;71.40;;;;;;4411690;32;20490;-65
2021/03/06 09:50:23;;;;;;;6.33;1.80;;;7.00;71.80;;;;;;4410433;32;20297;-67
2021/03/06 09:52:49;;;;;;;4.93;1.00;;;6.90;70.70;;;;;;4408085;32;20494;-66
2021/03/06 09:55:19;;;;;;;3.60;1.37;;;6.40;63.80;;;;;;4409245;32;20214;-66
2021/03/06 09:57:46;;;;;;;3.43;1.37;;;6.30;66.50;;;;;;4413869;32;20675;-66
2021/03/06 10:00:29;;;;;;;3.63;0.93;;;6.40;65.40;;;;;;4407124;32;20542;-65
2021/03/06 10:02:55;;;;;;;3.57;1.10;;;6.80;65.00;;;;;;4409113;32;20168;-67
2021/03/06 10:05:23;;;;;;;2.50;0.90;;;6.90;63.80;;;;;;4409309;32;20229;-65
2021/03/06 10:07:54;;;;;;;1.73;0.70;;;6.80;63.60;;;;;;4413743;32;20554;-65
2021/03/06 10:10:24;;;;;;;3.37;1.07;;;6.60;62.20;;;;;;4410930;32;20219;-65
2021/03/06 10:12:51;;;;;;;5.00;1.27;;;6.60;63.90;;;;;;4413029;32;20191;-66
2021/03/06 10:15:18;;;;;;;3.20;0.90;;;6.70;62.10;;;;;;4411077;32;20630;-67
2021/03/06 10:17:45;;;;;;;2.63;0.80;;;6.80;62.70;;;;;;4413343;32;20167;-65
2021/03/06 10:20:12;;;;;;;5.13;1.40;;;6.90;62.70;;;;;;4414030;32;20182;-66
2021/03/06 10:22:49;;;;;;;4.07;0.97;;;6.60;60.80;;;;;;4411828;32;20561;-65
2021/03/06 10:25:26;;;;;;;2.90;0.73;;;6.80;62.70;;;;;;4407826;32;20171;-65
2021/03/06 10:27:52;;;;;;;2.03;0.70;;;7.10;61.00;;;;;;4411189;32;20560;-64
2021/03/06 10:30:23;;;;;;;2.93;1.07;;;6.80;61.50;;;;;;4411640;32;20186;-65
2021/03/06 10:32:51;;;;;;;1.97;0.80;;;7.20;60.80;;;;;;4413655;32;20215;-65
2021/03/06 10:35:32;;;;;;;5.17;1.20;;;7.60;59.80;;;;;;4418399;32;20189;-65
2021/03/06 10:38:00;;;;;;;1.90;0.77;;;8.20;58.60;;;;;;4404485;32;20188;-65
2021/03/06 10:40:47;;;;;;;10.53;1.53;;;8.60;57.50;;;;;;4407417;32;20276;-64
2021/03/06 10:43:31;;;;;;;1.77;0.83;;;8.80;57.20;;;;;;4409003;32;20160;-66
2021/03/06 10:46:15;;;;;;;2.47;1.20;;;9.00;56.10;;;;;;4408522;32;20194;-66
2021/03/06 10:52:48;;;;;;;3.17;1.30;;;9.00;53.90;;;;;;4410649;32;20249;-65
2021/03/06 10:55:17;;;;;;;3.40;0.93;;;9.60;55.60;;;;;;4408935;32;20183;-66
2021/03/06 10:57:53;;;;;;;2.20;0.63;;;9.50;52.90;;;;;;4407436;32;20495;-65
2021/03/06 11:00:21;;;;;;;1.40;0.70;;;8.90;53.10;;;;;;4405202;32;20162;-67
2021/03/06 11:02:55;;;;;;;4.40;0.80;;;8.70;54.40;;;;;;4412653;32;20461;-67
2021/03/06 11:05:27;;;;;;;1.13;0.70;;;8.60;53.90;;;;;;4415298;32;20178;-65
2021/03/06 11:08:10;;;;;;;3.60;1.00;;;8.20;55.20;;;;;;4412628;32;20165;-66
2021/03/06 11:10:42;;;;;;;2.80;0.70;;;7.70;56.70;;;;;;4409089;32;20147;-66
2021/03/06 11:13:12;;;;;;;1.93;0.80;;;7.40;58.90;;;;;;4410728;32;20211;-66
2021/03/06 11:15:48;;;;;;;2.90;0.90;;;7.30;59.10;;;;;;4414430;32;20292;-64
2021/03/06 11:18:15;;;;;;;3.67;0.90;;;7.20;59.90;;;;;;4415012;32;20199;-66
2021/03/06 11:20:42;;;;;;;3.87;1.40;;;7.10;58.80;;;;;;4413227;32;20191;-66
2021/03/06 11:23:09;;;;;;;4.80;1.23;;;7.10;59.90;;;;;;4417059;32;20163;-65
2021/03/06 11:25:38;;;;;;;5.57;1.30;;;7.00;60.00;;;;;;4410476;32;20523;-64
2021/03/06 11:28:07;;;;;;;3.47;1.20;;;7.00;59.30;;;;;;4414468;32;20148;-66
2021/03/06 11:30:35;;;;;;;4.27;1.30;;;6.90;59.70;;;;;;4413106;32;20156;-66
2021/03/06 11:33:03;;;;;;;2.57;1.17;;;6.90;59.10;;;;;;4412745;32;20590;-66
2021/03/06 11:35:30;;;;;;;4.77;2.17;;;6.90;59.20;;;;;;4410896;32;20163;-67
2021/03/06 11:38:20;;;;;;;2.27;1.67;;;6.70;59.90;;;;;;4415237;32;20155;-66
2021/03/06 11:40:49;;;;;;;3.20;1.40;;;6.80;60.40;;;;;;4411249;32;20506;-65
2021/03/06 11:43:17;;;;;;;6.33;2.00;;;6.70;61.00;;;;;;4414667;32;20179;-68
2021/03/06 11:45:44;;;;;;;3.90;1.90;;;6.60;61.90;;;;;;4412621;32;20148;-65
2021/03/06 11:48:11;;;;;;;4.90;2.00;;;6.70;61.10;;;;;;4416947;32;20209;-65
2021/03/06 11:50:39;;;;;;;2.30;1.67;;;6.70;60.90;;;;;;4412142;32;20254;-66
2021/03/06 11:53:06;;;;;;;2.47;1.20;;;6.70;60.60;;;;;;4412427;32;20250;-66
2021/03/06 11:55:33;;;;;;;4.40;1.23;;;6.80;60.50;;;;;;4410309;32;20213;-66
2021/03/06 11:58:00;;;;;;;2.40;1.10;;;7.00;60.70;;;;;;4415265;32;20159;-67
2021/03/06 12:00:30;;;;;;;3.60;1.63;;;7.30;59.90;;;;;;4413993;32;20176;-67
2021/03/06 12:03:01;;;;;;;3.43;1.97;;;7.60;59.40;;;;;;4408977;32;20167;-66
2021/03/06 12:05:28;;;;;;;7.30;2.50;;;7.70;58.60;;;;;;4411123;32;20245;-67
2021/03/06 12:07:54;;;;;;;3.40;1.67;;;7.60;59.60;;;;;;4410644;32;20171;-66
2021/03/06 12:10:24;;;;;;;5.00;1.50;;;7.50;59.80;;;;;;4410673;32;20207;-66
2021/03/06 12:12:50;;;;;;;3.13;1.53;;;7.40;59.00;;;;;;4409255;32;20283;-67
2021/03/06 12:15:18;;;;;;;3.57;1.40;;;7.50;58.90;;;;;;4414628;32;20660;-66
2021/03/06 12:17:46;;;;;;;2.93;1.60;;;7.50;58.30;;;;;;4417856;32;20500;-65
2021/03/06 12:20:14;;;;;;;1.73;1.27;;;7.70;58.60;;;;;;4417193;32;20207;-66
2021/03/06 12:22:41;;;;;;;4.87;1.80;;;7.70;57.50;;;;;;4413999;32;20209;-65
2021/03/06 12:25:13;;;;;;;2.63;1.40;;;7.80;57.50;;;;;;4412276;32;20164;-66
2021/03/06 12:27:40;;;;;;;5.37;1.63;;;7.80;56.90;;;;;;4412903;32;20231;-66
2021/03/06 12:30:08;;;;;;;3.93;1.73;;;7.70;57.60;;;;;;4410857;32;20194;-66
2021/03/06 12:32:36;;;;;;;6.60;1.67;;;7.80;58.50;;;;;;4413438;32;20280;-68
2021/03/06 12:35:05;;;;;;;4.20;1.37;;;7.90;57.80;;;;;;4412998;32;20198;-66
2021/03/06 12:37:33;;;;;;;3.10;1.70;;;8.00;57.90;;;;;;4408268;32;20179;-66
2021/03/06 12:40:01;;;;;;;3.83;1.87;;;8.20;57.40;;;;;;4407780;32;20174;-67
2021/03/06 12:42:27;;;;;;;6.27;2.03;;;8.50;57.20;;;;;;4409414;32;20156;-68
2021/03/06 12:44:57;;;;;;;2.50;1.27;;;8.70;55.70;;;;;;4408438;32;20250;-65
2021/03/06 12:47:26;;;;;;;2.83;1.50;;;8.60;55.30;;;;;;4410751;32;20496;-68
2021/03/06 12:49:57;;;;;;;3.20;1.50;;;8.70;55.10;;;;;;4410591;32;20191;-68
2021/03/06 12:52:25;;;;;;;2.07;1.27;;;8.70;55.30;;;;;;4409997;32;20259;-70
2021/03/06 12:54:52;;;;;;;5.03;1.00;;;8.80;54.50;;;;;;4406920;32;20232;-68
2021/03/06 12:57:18;;;;;;;5.70;1.70;;;8.80;54.30;;;;;;4408266;32;20254;-66
2021/03/06 12:59:48;;;;;;;3.47;1.40;;;8.50;54.60;;;;;;4406566;32;20160;-68
2021/03/06 13:02:20;;;;;;;3.73;1.53;;;8.60;55.00;;;;;;4408938;32;20238;-66
2021/03/06 13:04:47;;;;;;;3.33;1.10;;;8.70;55.00;;;;;;4408682;32;20178;-65